sensor_id;sensor_type;location;lat;lon;timestamp;P1;durP1;ratioP1;P2;durP2;ratioP2
32292;SDS011;43233;48.608;8.838;2024-03-23T00:54:09;7.73;;;3.10;;
32292;SDS011;43233;48.608;8.838;2024-03-23T00:56:35;3.23;;;2.60;;
32292;SDS011;43233;48.608;8.838;2024-03-23T00:59:01;4.20;;;2.80;;
32292;SDS011;43233;48.608;8.838;2024-03-23T01:01:26;3.90;;;3.27;;
32292;SDS011;43233;48.608;8.838;2024-03-23T01:03:52;4.30;;;3.10;;
32292;SDS011;43233;48.608;8.838;2024-03-23T01:06:17;3.20;;;2.77;;
32292;SDS011;43233;48.608;8.838;2024-03-23T01:08:43;3.70;;;3.03;;
32292;SDS011;43233;48.608;8.838;2024-03-23T01:11:09;2.93;;;2.63;;
32292;SDS011;43233;48.608;8.838;2024-03-23T01:13:34;8.27;;;2.30;;
32292;SDS011;43233;48.608;8.838;2024-03-23T01:16:00;4.67;;;3.33;;
32292;SDS011;43233;48.608;8.838;2024-03-23T01:18:26;5.13;;;3.03;;
32292;SDS011;43233;48.608;8.838;2024-03-23T01:20:52;3.97;;;2.83;;
32292;SDS011;43233;48.608;8.838;2024-03-23T01:23:17;3.10;;;2.80;;
32292;SDS011;43233;48.608;8.838;2024-03-23T01:25:43;4.17;;;3.13;;
32292;SDS011;43233;48.608;8.838;2024-03-23T01:28:16;2.67;;;2.47;;
32292;SDS011;43233;48.608;8.838;2024-03-23T01:30:42;4.60;;;2.80;;
32292;SDS011;43233;48.608;8.838;2024-03-23T01:33:07;2.50;;;2.30;;
32292;SDS011;43233;48.608;8.838;2024-03-23T01:35:33;4.10;;;3.30;;
32292;SDS011;43233;48.608;8.838;2024-03-23T01:37:58;5.07;;;3.10;;
32292;SDS011;43233;48.608;8.838;2024-03-23T01:40:24;4.20;;;2.43;;
32292;SDS011;43233;48.608;8.838;2024-03-23T01:42:56;3.70;;;2.90;;
32292;SDS011;43233;48.608;8.838;2024-03-23T01:45:32;4.40;;;2.70;;
32292;SDS011;43233;48.608;8.838;2024-03-23T01:47:59;5.43;;;3.13;;
32292;SDS011;43233;48.608;8.838;2024-03-23T01:50:25;6.20;;;3.33;;
32292;SDS011;43233;48.608;8.838;2024-03-23T01:52:51;4.10;;;2.93;;
32292;SDS011;43233;48.608;8.838;2024-03-23T01:55:18;5.30;;;3.40;;
32292;SDS011;43233;48.608;8.838;2024-03-23T01:57:44;3.40;;;3.10;;
32292;SDS011;43233;48.608;8.838;2024-03-23T02:00:10;3.90;;;3.10;;
32292;SDS011;43233;48.608;8.838;2024-03-23T02:02:41;3.20;;;3.00;;
32292;SDS011;43233;48.608;8.838;2024-03-23T02:05:13;4.63;;;3.10;;
32292;SDS011;43233;48.608;8.838;2024-03-23T02:07:39;3.10;;;2.90;;
32292;SDS011;43233;48.608;8.838;2024-03-23T02:10:09;4.30;;;2.97;;
32292;SDS011;43233;48.608;8.838;2024-03-23T02:12:36;4.43;;;3.20;;
32292;SDS011;43233;48.608;8.838;2024-03-23T02:15:02;3.37;;;2.87;;
32292;SDS011;43233;48.608;8.838;2024-03-23T02:17:29;3.83;;;2.80;;
32292;SDS011;43233;48.608;8.838;2024-03-23T02:19:56;3.10;;;2.80;;
32292;SDS011;43233;48.608;8.838;2024-03-23T02:22:21;3.77;;;3.00;;
32292;SDS011;43233;48.608;8.838;2024-03-23T02:24:47;2.63;;;2.43;;
32292;SDS011;43233;48.608;8.838;2024-03-23T02:27:12;9.90;;;3.43;;
32292;SDS011;43233;48.608;8.838;2024-03-23T02:29:38;2.63;;;2.47;;
32292;SDS011;43233;48.608;8.838;2024-03-23T02:32:04;3.40;;;3.10;;
32292;SDS011;43233;48.608;8.838;2024-03-23T02:34:29;2.27;;;2.07;;
32292;SDS011;43233;48.608;8.838;2024-03-23T02:36:55;3.70;;;2.50;;
32292;SDS011;43233;48.608;8.838;2024-03-23T02:39:21;5.30;;;3.13;;
32292;SDS011;43233;48.608;8.838;2024-03-23T02:41:46;3.80;;;3.13;;
32292;SDS011;43233;48.608;8.838;2024-03-23T02:44:13;4.77;;;2.80;;
32292;SDS011;43233;48.608;8.838;2024-03-23T02:46:39;2.83;;;2.63;;
32292;SDS011;43233;48.608;8.838;2024-03-23T02:49:04;3.70;;;3.30;;
32292;SDS011;43233;48.608;8.838;2024-03-23T02:51:30;6.30;;;3.50;;
32292;SDS011;43233;48.608;8.838;2024-03-23T02:53:56;5.00;;;3.40;;
32292;SDS011;43233;48.608;8.838;2024-03-23T02:56:22;3.20;;;2.40;;
32292;SDS011;43233;48.608;8.838;2024-03-23T02:58:47;2.60;;;2.40;;
32292;SDS011;43233;48.608;8.838;2024-03-23T03:01:13;3.73;;;3.00;;
32292;SDS011;43233;48.608;8.838;2024-03-23T03:03:39;2.93;;;2.70;;
32292;SDS011;43233;48.608;8.838;2024-03-23T03:06:04;5.27;;;2.77;;
32292;SDS011;43233;48.608;8.838;2024-03-23T03:08:30;3.17;;;2.87;;
32292;SDS011;43233;48.608;8.838;2024-03-23T03:10:56;6.70;;;3.57;;
32292;SDS011;43233;48.608;8.838;2024-03-23T03:13:21;3.87;;;2.80;;
32292;SDS011;43233;48.608;8.838;2024-03-23T03:15:47;5.17;;;2.90;;
32292;SDS011;43233;48.608;8.838;2024-03-23T03:18:12;11.27;;;3.90;;
32292;SDS011;43233;48.608;8.838;2024-03-23T03:20:38;5.83;;;2.70;;
32292;SDS011;43233;48.608;8.838;2024-03-23T03:23:05;10.90;;;2.50;;
32292;SDS011;43233;48.608;8.838;2024-03-23T03:25:31;2.80;;;2.60;;
32292;SDS011;43233;48.608;8.838;2024-03-23T03:27:57;2.80;;;2.47;;
32292;SDS011;43233;48.608;8.838;2024-03-23T03:30:22;6.70;;;3.23;;
32292;SDS011;43233;48.608;8.838;2024-03-23T03:32:49;2.67;;;2.50;;
32292;SDS011;43233;48.608;8.838;2024-03-23T03:35:14;3.33;;;2.60;;
32292;SDS011;43233;48.608;8.838;2024-03-23T03:37:40;2.87;;;2.20;;
32292;SDS011;43233;48.608;8.838;2024-03-23T03:40:06;2.50;;;2.30;;
32292;SDS011;43233;48.608;8.838;2024-03-23T03:42:34;4.47;;;3.50;;
32292;SDS011;43233;48.608;8.838;2024-03-23T03:44:59;3.90;;;3.03;;
32292;SDS011;43233;48.608;8.838;2024-03-23T03:47:25;3.33;;;3.03;;
32292;SDS011;43233;48.608;8.838;2024-03-23T03:49:51;6.63;;;3.07;;
32292;SDS011;43233;48.608;8.838;2024-03-23T03:52:16;3.43;;;2.70;;
32292;SDS011;43233;48.608;8.838;2024-03-23T03:54:42;3.30;;;3.00;;
32292;SDS011;43233;48.608;8.838;2024-03-23T03:57:07;5.10;;;3.00;;
32292;SDS011;43233;48.608;8.838;2024-03-23T03:59:33;2.73;;;2.53;;
32292;SDS011;43233;48.608;8.838;2024-03-23T04:01:59;5.43;;;3.17;;
32292;SDS011;43233;48.608;8.838;2024-03-23T04:04:25;7.80;;;3.23;;
32292;SDS011;43233;48.608;8.838;2024-03-23T04:06:57;7.00;;;3.23;;
32292;SDS011;43233;48.608;8.838;2024-03-23T04:09:26;3.23;;;3.00;;
32292;SDS011;43233;48.608;8.838;2024-03-23T04:11:52;3.07;;;2.77;;
32292;SDS011;43233;48.608;8.838;2024-03-23T04:14:18;4.57;;;3.23;;
32292;SDS011;43233;48.608;8.838;2024-03-23T04:16:44;3.60;;;2.90;;
32292;SDS011;43233;48.608;8.838;2024-03-23T04:19:09;4.97;;;3.47;;
32292;SDS011;43233;48.608;8.838;2024-03-23T04:21:35;8.23;;;3.17;;
32292;SDS011;43233;48.608;8.838;2024-03-23T04:24:02;4.03;;;2.83;;
32292;SDS011;43233;48.608;8.838;2024-03-23T04:26:28;5.93;;;3.60;;
32292;SDS011;43233;48.608;8.838;2024-03-23T04:28:53;3.37;;;3.17;;
32292;SDS011;43233;48.608;8.838;2024-03-23T04:31:19;4.33;;;3.93;;
32292;SDS011;43233;48.608;8.838;2024-03-23T04:33:44;3.70;;;3.40;;
32292;SDS011;43233;48.608;8.838;2024-03-23T04:36:10;9.07;;;3.90;;
32292;SDS011;43233;48.608;8.838;2024-03-23T04:38:36;3.37;;;3.17;;
32292;SDS011;43233;48.608;8.838;2024-03-23T04:41:02;3.07;;;2.87;;
32292;SDS011;43233;48.608;8.838;2024-03-23T04:43:27;3.97;;;3.57;;
32292;SDS011;43233;48.608;8.838;2024-03-23T04:45:53;4.50;;;3.27;;
32292;SDS011;43233;48.608;8.838;2024-03-23T04:48:20;7.20;;;3.40;;
32292;SDS011;43233;48.608;8.838;2024-03-23T04:50:47;3.80;;;3.27;;
32292;SDS011;43233;48.608;8.838;2024-03-23T04:53:13;3.37;;;2.70;;
32292;SDS011;43233;48.608;8.838;2024-03-23T04:55:40;6.80;;;3.40;;
32292;SDS011;43233;48.608;8.838;2024-03-23T04:58:06;8.03;;;3.53;;
32292;SDS011;43233;48.608;8.838;2024-03-23T05:00:32;5.40;;;3.70;;
32292;SDS011;43233;48.608;8.838;2024-03-23T05:02:57;4.17;;;3.73;;
32292;SDS011;43233;48.608;8.838;2024-03-23T05:05:23;6.03;;;4.07;;
32292;SDS011;43233;48.608;8.838;2024-03-23T05:07:48;5.10;;;3.27;;
32292;SDS011;43233;48.608;8.838;2024-03-23T05:10:14;4.30;;;3.80;;
32292;SDS011;43233;48.608;8.838;2024-03-23T05:12:40;6.73;;;4.60;;
32292;SDS011;43233;48.608;8.838;2024-03-23T05:15:05;6.27;;;4.70;;
32292;SDS011;43233;48.608;8.838;2024-03-23T05:17:32;5.80;;;5.20;;
32292;SDS011;43233;48.608;8.838;2024-03-23T05:19:58;7.13;;;5.50;;
32292;SDS011;43233;48.608;8.838;2024-03-23T05:22:24;6.87;;;6.20;;
32292;SDS011;43233;48.608;8.838;2024-03-23T05:24:50;9.03;;;6.53;;
32292;SDS011;43233;48.608;8.838;2024-03-23T05:27:15;7.70;;;5.93;;
32292;SDS011;43233;48.608;8.838;2024-03-23T05:29:41;8.67;;;5.57;;
32292;SDS011;43233;48.608;8.838;2024-03-23T05:32:07;7.00;;;5.70;;
32292;SDS011;43233;48.608;8.838;2024-03-23T05:34:33;6.67;;;5.43;;
32292;SDS011;43233;48.608;8.838;2024-03-23T05:36:58;6.17;;;4.77;;
32292;SDS011;43233;48.608;8.838;2024-03-23T05:39:24;5.97;;;5.33;;
32292;SDS011;43233;48.608;8.838;2024-03-23T05:41:50;5.70;;;5.13;;
32292;SDS011;43233;48.608;8.838;2024-03-23T05:44:16;5.30;;;4.80;;
32292;SDS011;43233;48.608;8.838;2024-03-23T05:46:41;4.47;;;4.07;;
32292;SDS011;43233;48.608;8.838;2024-03-23T05:49:07;5.00;;;4.23;;
32292;SDS011;43233;48.608;8.838;2024-03-23T05:51:34;7.03;;;5.03;;
32292;SDS011;43233;48.608;8.838;2024-03-23T05:53:59;4.63;;;4.27;;
32292;SDS011;43233;48.608;8.838;2024-03-23T05:56:29;4.17;;;3.80;;
32292;SDS011;43233;48.608;8.838;2024-03-23T05:58:54;3.73;;;3.43;;
32292;SDS011;43233;48.608;8.838;2024-03-23T06:01:20;2.97;;;2.77;;
32292;SDS011;43233;48.608;8.838;2024-03-23T06:03:45;3.07;;;2.77;;
32292;SDS011;43233;48.608;8.838;2024-03-23T06:06:11;2.60;;;2.40;;
32292;SDS011;43233;48.608;8.838;2024-03-23T06:08:38;2.60;;;2.23;;
32292;SDS011;43233;48.608;8.838;2024-03-23T06:11:04;2.20;;;2.00;;
32292;SDS011;43233;48.608;8.838;2024-03-23T06:13:33;1.77;;;1.67;;
32292;SDS011;43233;48.608;8.838;2024-03-23T06:15:59;1.70;;;1.60;;
32292;SDS011;43233;48.608;8.838;2024-03-23T06:18:27;4.90;;;1.90;;
32292;SDS011;43233;48.608;8.838;2024-03-23T06:20:53;2.20;;;1.60;;
32292;SDS011;43233;48.608;8.838;2024-03-23T06:23:20;1.57;;;1.40;;
32292;SDS011;43233;48.608;8.838;2024-03-23T06:25:46;1.10;;;1.10;;
32292;SDS011;43233;48.608;8.838;2024-03-23T06:28:12;1.20;;;1.20;;
32292;SDS011;43233;48.608;8.838;2024-03-23T06:30:38;1.37;;;1.27;;
32292;SDS011;43233;48.608;8.838;2024-03-23T06:33:04;1.40;;;1.30;;
32292;SDS011;43233;48.608;8.838;2024-03-23T06:35:30;1.07;;;1.07;;
32292;SDS011;43233;48.608;8.838;2024-03-23T06:37:56;1.03;;;1.03;;
32292;SDS011;43233;48.608;8.838;2024-03-23T06:40:23;4.83;;;1.17;;
32292;SDS011;43233;48.608;8.838;2024-03-23T06:42:48;1.50;;;1.40;;
32292;SDS011;43233;48.608;8.838;2024-03-23T06:45:14;1.40;;;1.30;;
32292;SDS011;43233;48.608;8.838;2024-03-23T06:47:40;0.90;;;0.90;;
32292;SDS011;43233;48.608;8.838;2024-03-23T06:50:05;1.20;;;1.20;;
32292;SDS011;43233;48.608;8.838;2024-03-23T06:52:31;1.10;;;1.00;;
32292;SDS011;43233;48.608;8.838;2024-03-23T06:54:57;5.87;;;1.10;;
32292;SDS011;43233;48.608;8.838;2024-03-23T06:57:23;1.10;;;1.10;;
32292;SDS011;43233;48.608;8.838;2024-03-23T06:59:49;1.27;;;1.10;;
32292;SDS011;43233;48.608;8.838;2024-03-23T07:02:14;1.00;;;1.00;;
32292;SDS011;43233;48.608;8.838;2024-03-23T07:04:41;1.30;;;1.20;;
32292;SDS011;43233;48.608;8.838;2024-03-23T07:07:07;1.13;;;1.13;;
32292;SDS011;43233;48.608;8.838;2024-03-23T07:09:32;2.40;;;1.30;;
32292;SDS011;43233;48.608;8.838;2024-03-23T07:11:58;1.10;;;1.10;;
32292;SDS011;43233;48.608;8.838;2024-03-23T07:14:24;0.90;;;0.90;;
32292;SDS011;43233;48.608;8.838;2024-03-23T07:16:50;7.20;;;1.20;;
32292;SDS011;43233;48.608;8.838;2024-03-23T07:19:16;1.00;;;1.00;;
32292;SDS011;43233;48.608;8.838;2024-03-23T07:21:43;0.97;;;0.97;;
32292;SDS011;43233;48.608;8.838;2024-03-23T07:24:09;1.73;;;1.00;;
32292;SDS011;43233;48.608;8.838;2024-03-23T07:26:35;1.10;;;1.10;;
32292;SDS011;43233;48.608;8.838;2024-03-23T07:29:02;1.27;;;1.17;;
32292;SDS011;43233;48.608;8.838;2024-03-23T07:31:28;0.90;;;0.90;;
32292;SDS011;43233;48.608;8.838;2024-03-23T07:33:54;1.20;;;1.20;;
32292;SDS011;43233;48.608;8.838;2024-03-23T07:36:20;1.00;;;1.00;;
32292;SDS011;43233;48.608;8.838;2024-03-23T07:38:45;0.83;;;0.83;;
32292;SDS011;43233;48.608;8.838;2024-03-23T07:41:12;0.80;;;0.80;;
32292;SDS011;43233;48.608;8.838;2024-03-23T07:43:44;0.87;;;0.87;;
32292;SDS011;43233;48.608;8.838;2024-03-23T07:46:10;0.93;;;0.93;;
32292;SDS011;43233;48.608;8.838;2024-03-23T07:48:39;1.53;;;1.00;;
32292;SDS011;43233;48.608;8.838;2024-03-23T07:51:11;0.90;;;0.90;;
32292;SDS011;43233;48.608;8.838;2024-03-23T07:53:42;0.97;;;0.97;;
32292;SDS011;43233;48.608;8.838;2024-03-23T07:56:09;1.07;;;1.07;;
32292;SDS011;43233;48.608;8.838;2024-03-23T07:58:36;1.00;;;1.00;;
32292;SDS011;43233;48.608;8.838;2024-03-23T08:01:05;1.30;;;1.20;;
32292;SDS011;43233;48.608;8.838;2024-03-23T08:03:35;3.20;;;1.23;;
32292;SDS011;43233;48.608;8.838;2024-03-23T08:08:52;1.90;;;1.20;;
32292;SDS011;43233;48.608;8.838;2024-03-23T08:11:30;1.30;;;1.30;;
32292;SDS011;43233;48.608;8.838;2024-03-23T08:13:57;2.80;;;1.53;;
32292;SDS011;43233;48.608;8.838;2024-03-23T08:16:22;3.40;;;1.77;;
32292;SDS011;43233;48.608;8.838;2024-03-23T08:18:50;2.60;;;2.10;;
32292;SDS011;43233;48.608;8.838;2024-03-23T08:21:16;1.57;;;1.47;;
32292;SDS011;43233;48.608;8.838;2024-03-23T08:23:43;1.93;;;1.80;;
32292;SDS011;43233;48.608;8.838;2024-03-23T08:26:09;2.27;;;1.83;;
32292;SDS011;43233;48.608;8.838;2024-03-23T08:28:36;2.13;;;2.00;;
32292;SDS011;43233;48.608;8.838;2024-03-23T08:31:12;4.53;;;2.00;;
32292;SDS011;43233;48.608;8.838;2024-03-23T08:33:39;3.43;;;2.23;;
32292;SDS011;43233;48.608;8.838;2024-03-23T08:36:07;2.70;;;2.13;;
32292;SDS011;43233;48.608;8.838;2024-03-23T08:38:34;3.30;;;2.60;;
32292;SDS011;43233;48.608;8.838;2024-03-23T08:41:03;6.30;;;2.97;;
32292;SDS011;43233;48.608;8.838;2024-03-23T08:43:31;2.90;;;2.40;;
32292;SDS011;43233;48.608;8.838;2024-03-23T08:46:05;6.70;;;2.90;;
32292;SDS011;43233;48.608;8.838;2024-03-23T08:48:40;6.20;;;2.70;;
32292;SDS011;43233;48.608;8.838;2024-03-23T08:51:08;6.37;;;2.70;;
32292;SDS011;43233;48.608;8.838;2024-03-23T08:53:35;7.30;;;3.90;;
32292;SDS011;43233;48.608;8.838;2024-03-23T08:56:02;9.47;;;3.47;;
32292;SDS011;43233;48.608;8.838;2024-03-23T08:58:28;6.17;;;2.60;;
32292;SDS011;43233;48.608;8.838;2024-03-23T09:00:55;4.90;;;3.07;;
32292;SDS011;43233;48.608;8.838;2024-03-23T09:03:28;7.83;;;3.40;;
32292;SDS011;43233;48.608;8.838;2024-03-23T09:05:53;4.40;;;3.00;;
32292;SDS011;43233;48.608;8.838;2024-03-23T09:08:20;9.60;;;4.60;;
32292;SDS011;43233;48.608;8.838;2024-03-23T09:10:46;8.40;;;3.90;;
32292;SDS011;43233;48.608;8.838;2024-03-23T09:13:12;4.43;;;3.10;;
32292;SDS011;43233;48.608;8.838;2024-03-23T09:15:45;8.00;;;2.90;;
32292;SDS011;43233;48.608;8.838;2024-03-23T09:18:12;7.80;;;3.73;;
32292;SDS011;43233;48.608;8.838;2024-03-23T09:20:38;5.10;;;2.93;;
32292;SDS011;43233;48.608;8.838;2024-03-23T09:23:03;8.90;;;2.87;;
32292;SDS011;43233;48.608;8.838;2024-03-23T09:25:29;9.40;;;3.50;;
32292;SDS011;43233;48.608;8.838;2024-03-23T09:27:55;5.93;;;3.33;;
32292;SDS011;43233;48.608;8.838;2024-03-23T09:30:20;12.07;;;3.27;;
32292;SDS011;43233;48.608;8.838;2024-03-23T09:32:46;5.60;;;3.00;;
32292;SDS011;43233;48.608;8.838;2024-03-23T09:35:12;6.50;;;4.03;;
32292;SDS011;43233;48.608;8.838;2024-03-23T09:37:40;7.00;;;3.47;;
32292;SDS011;43233;48.608;8.838;2024-03-23T09:40:12;2.70;;;2.50;;
32292;SDS011;43233;48.608;8.838;2024-03-23T09:42:40;4.80;;;3.30;;
32292;SDS011;43233;48.608;8.838;2024-03-23T09:45:12;4.60;;;3.07;;
32292;SDS011;43233;48.608;8.838;2024-03-23T09:47:45;5.97;;;3.20;;
32292;SDS011;43233;48.608;8.838;2024-03-23T09:50:12;12.13;;;3.63;;
32292;SDS011;43233;48.608;8.838;2024-03-23T09:52:38;9.60;;;3.83;;
32292;SDS011;43233;48.608;8.838;2024-03-23T09:55:04;6.07;;;3.23;;
32292;SDS011;43233;48.608;8.838;2024-03-23T09:57:30;3.77;;;3.37;;
32292;SDS011;43233;48.608;8.838;2024-03-23T09:59:55;4.37;;;3.07;;
32292;SDS011;43233;48.608;8.838;2024-03-23T10:02:22;9.07;;;3.63;;
32292;SDS011;43233;48.608;8.838;2024-03-23T10:04:49;6.83;;;3.40;;
32292;SDS011;43233;48.608;8.838;2024-03-23T10:07:15;6.37;;;2.93;;
32292;SDS011;43233;48.608;8.838;2024-03-23T10:09:45;7.40;;;3.17;;
32292;SDS011;43233;48.608;8.838;2024-03-23T10:12:16;6.37;;;3.57;;
32292;SDS011;43233;48.608;8.838;2024-03-23T10:14:43;8.10;;;3.43;;
32292;SDS011;43233;48.608;8.838;2024-03-23T10:17:14;4.13;;;2.80;;
32292;SDS011;43233;48.608;8.838;2024-03-23T10:19:47;5.83;;;3.47;;
32292;SDS011;43233;48.608;8.838;2024-03-23T10:22:17;6.70;;;3.00;;
32292;SDS011;43233;48.608;8.838;2024-03-23T10:24:46;9.27;;;3.77;;
32292;SDS011;43233;48.608;8.838;2024-03-23T10:27:15;8.77;;;3.27;;
32292;SDS011;43233;48.608;8.838;2024-03-23T10:29:45;8.87;;;3.23;;
32292;SDS011;43233;48.608;8.838;2024-03-23T10:32:12;9.90;;;4.30;;
32292;SDS011;43233;48.608;8.838;2024-03-23T10:34:38;7.70;;;3.97;;
32292;SDS011;43233;48.608;8.838;2024-03-23T10:37:04;5.10;;;2.40;;
32292;SDS011;43233;48.608;8.838;2024-03-23T10:42:01;2.90;;;2.30;;
32292;SDS011;43233;48.608;8.838;2024-03-23T10:44:32;4.23;;;2.20;;
32292;SDS011;43233;48.608;8.838;2024-03-23T10:46:58;4.40;;;1.83;;
32292;SDS011;43233;48.608;8.838;2024-03-23T10:49:29;2.33;;;1.83;;
32292;SDS011;43233;48.608;8.838;2024-03-23T10:51:57;8.43;;;2.07;;
32292;SDS011;43233;48.608;8.838;2024-03-23T10:54:26;4.70;;;2.00;;
32292;SDS011;43233;48.608;8.838;2024-03-23T10:56:55;1.60;;;1.50;;
32292;SDS011;43233;48.608;8.838;2024-03-23T10:59:28;2.60;;;1.87;;
32292;SDS011;43233;48.608;8.838;2024-03-23T11:01:56;2.17;;;2.07;;
32292;SDS011;43233;48.608;8.838;2024-03-23T11:04:29;1.80;;;1.70;;
32292;SDS011;43233;48.608;8.838;2024-03-23T11:06:56;3.40;;;2.10;;
32292;SDS011;43233;48.608;8.838;2024-03-23T11:14:48;3.17;;;1.63;;
32292;SDS011;43233;48.608;8.838;2024-03-23T11:17:22;2.17;;;1.90;;
32292;SDS011;43233;48.608;8.838;2024-03-23T11:25:18;2.43;;;1.70;;
32292;SDS011;43233;48.608;8.838;2024-03-23T11:27:52;4.83;;;1.80;;
32292;SDS011;43233;48.608;8.838;2024-03-23T11:30:19;4.17;;;2.13;;
32292;SDS011;43233;48.608;8.838;2024-03-23T11:32:49;12.80;;;1.90;;
32292;SDS011;43233;48.608;8.838;2024-03-23T11:35:34;4.07;;;1.60;;
32292;SDS011;43233;48.608;8.838;2024-03-23T11:40:44;5.57;;;1.73;;
32292;SDS011;43233;48.608;8.838;2024-03-23T11:43:14;7.90;;;2.23;;
32292;SDS011;43233;48.608;8.838;2024-03-23T11:48:15;6.40;;;2.60;;
32292;SDS011;43233;48.608;8.838;2024-03-23T11:50:45;2.77;;;2.00;;
32292;SDS011;43233;48.608;8.838;2024-03-23T11:58:15;5.50;;;2.07;;
32292;SDS011;43233;48.608;8.838;2024-03-23T12:00:41;5.03;;;2.63;;
32292;SDS011;43233;48.608;8.838;2024-03-23T12:03:07;4.23;;;2.10;;
32292;SDS011;43233;48.608;8.838;2024-03-23T12:05:35;4.57;;;2.20;;
32292;SDS011;43233;48.608;8.838;2024-03-23T12:08:21;7.40;;;2.73;;
32292;SDS011;43233;48.608;8.838;2024-03-23T12:11:16;7.03;;;2.73;;
32292;SDS011;43233;48.608;8.838;2024-03-23T12:13:43;10.50;;;3.10;;
32292;SDS011;43233;48.608;8.838;2024-03-23T12:16:17;6.80;;;2.80;;
32292;SDS011;43233;48.608;8.838;2024-03-23T12:18:46;7.00;;;3.00;;
32292;SDS011;43233;48.608;8.838;2024-03-23T12:21:16;7.93;;;3.10;;
32292;SDS011;43233;48.608;8.838;2024-03-23T12:23:42;5.50;;;2.77;;
32292;SDS011;43233;48.608;8.838;2024-03-23T12:26:09;6.40;;;2.20;;
32292;SDS011;43233;48.608;8.838;2024-03-23T12:28:36;5.57;;;2.83;;
32292;SDS011;43233;48.608;8.838;2024-03-23T12:31:02;8.13;;;2.50;;
32292;SDS011;43233;48.608;8.838;2024-03-23T12:33:28;7.40;;;2.37;;
32292;SDS011;43233;48.608;8.838;2024-03-23T12:35:54;6.47;;;2.40;;
32292;SDS011;43233;48.608;8.838;2024-03-23T12:38:19;4.63;;;2.50;;
32292;SDS011;43233;48.608;8.838;2024-03-23T12:40:48;5.07;;;2.30;;
32292;SDS011;43233;48.608;8.838;2024-03-23T12:43:17;5.50;;;2.27;;
32292;SDS011;43233;48.608;8.838;2024-03-23T12:45:46;4.83;;;2.20;;
32292;SDS011;43233;48.608;8.838;2024-03-23T12:48:13;8.83;;;3.10;;
32292;SDS011;43233;48.608;8.838;2024-03-23T12:50:38;7.50;;;3.00;;
32292;SDS011;43233;48.608;8.838;2024-03-23T12:53:04;4.43;;;2.10;;
32292;SDS011;43233;48.608;8.838;2024-03-23T12:55:30;4.30;;;2.60;;
32292;SDS011;43233;48.608;8.838;2024-03-23T12:57:55;6.17;;;2.40;;
32292;SDS011;43233;48.608;8.838;2024-03-23T13:00:21;4.17;;;1.13;;
32292;SDS011;43233;48.608;8.838;2024-03-23T13:02:47;2.50;;;1.40;;
32292;SDS011;43233;48.608;8.838;2024-03-23T13:05:13;2.90;;;1.60;;
32292;SDS011;43233;48.608;8.838;2024-03-23T13:07:38;3.57;;;1.70;;
32292;SDS011;43233;48.608;8.838;2024-03-23T13:10:05;4.93;;;1.23;;
32292;SDS011;43233;48.608;8.838;2024-03-23T13:12:31;1.40;;;1.30;;
32292;SDS011;43233;48.608;8.838;2024-03-23T13:15:00;1.57;;;1.00;;
32292;SDS011;43233;48.608;8.838;2024-03-23T13:17:26;1.73;;;1.27;;
32292;SDS011;43233;48.608;8.838;2024-03-23T13:19:52;1.97;;;1.20;;
32292;SDS011;43233;48.608;8.838;2024-03-23T13:22:21;2.80;;;2.00;;
32292;SDS011;43233;48.608;8.838;2024-03-23T13:24:47;2.63;;;1.53;;
32292;SDS011;43233;48.608;8.838;2024-03-23T13:27:13;1.50;;;1.40;;
32292;SDS011;43233;48.608;8.838;2024-03-23T13:29:39;3.37;;;1.97;;
32292;SDS011;43233;48.608;8.838;2024-03-23T13:32:04;3.07;;;1.70;;
32292;SDS011;43233;48.608;8.838;2024-03-23T13:34:31;2.67;;;1.50;;
32292;SDS011;43233;48.608;8.838;2024-03-23T13:36:58;1.87;;;1.67;;
32292;SDS011;43233;48.608;8.838;2024-03-23T13:39:24;6.23;;;2.47;;
32292;SDS011;43233;48.608;8.838;2024-03-23T13:41:52;5.17;;;2.00;;
32292;SDS011;43233;48.608;8.838;2024-03-23T13:44:19;10.17;;;2.07;;
32292;SDS011;43233;48.608;8.838;2024-03-23T13:46:45;4.77;;;1.87;;
32292;SDS011;43233;48.608;8.838;2024-03-23T13:49:24;11.23;;;1.83;;
32292;SDS011;43233;48.608;8.838;2024-03-23T13:51:53;7.23;;;2.00;;
32292;SDS011;43233;48.608;8.838;2024-03-23T13:54:20;6.10;;;2.10;;
32292;SDS011;43233;48.608;8.838;2024-03-23T13:56:47;9.43;;;2.20;;
32292;SDS011;43233;48.608;8.838;2024-03-23T13:59:13;13.87;;;4.43;;
32292;SDS011;43233;48.608;8.838;2024-03-23T14:01:39;13.03;;;5.30;;
32292;SDS011;43233;48.608;8.838;2024-03-23T14:04:05;14.40;;;3.30;;
32292;SDS011;43233;48.608;8.838;2024-03-23T14:06:31;4.07;;;2.10;;
32292;SDS011;43233;48.608;8.838;2024-03-23T14:08:57;5.77;;;1.70;;
32292;SDS011;43233;48.608;8.838;2024-03-23T14:11:22;6.00;;;2.10;;
32292;SDS011;43233;48.608;8.838;2024-03-23T14:13:48;4.67;;;2.20;;
32292;SDS011;43233;48.608;8.838;2024-03-23T14:16:13;4.50;;;2.17;;
32292;SDS011;43233;48.608;8.838;2024-03-23T14:18:39;6.33;;;1.87;;
32292;SDS011;43233;48.608;8.838;2024-03-23T14:21:05;5.50;;;1.60;;
32292;SDS011;43233;48.608;8.838;2024-03-23T14:23:30;5.33;;;2.03;;
32292;SDS011;43233;48.608;8.838;2024-03-23T14:25:59;5.60;;;1.20;;
32292;SDS011;43233;48.608;8.838;2024-03-23T14:28:25;1.50;;;1.40;;
32292;SDS011;43233;48.608;8.838;2024-03-23T14:30:52;6.00;;;2.03;;
32292;SDS011;43233;48.608;8.838;2024-03-23T14:33:20;2.70;;;1.60;;
32292;SDS011;43233;48.608;8.838;2024-03-23T14:35:52;4.73;;;1.40;;
32292;SDS011;43233;48.608;8.838;2024-03-23T14:38:19;1.40;;;1.20;;
32292;SDS011;43233;48.608;8.838;2024-03-23T14:40:45;7.40;;;2.30;;
32292;SDS011;43233;48.608;8.838;2024-03-23T14:43:11;1.40;;;1.40;;
32292;SDS011;43233;48.608;8.838;2024-03-23T14:45:37;1.33;;;1.23;;
32292;SDS011;43233;48.608;8.838;2024-03-23T14:48:02;6.10;;;1.83;;
32292;SDS011;43233;48.608;8.838;2024-03-23T14:50:28;6.07;;;2.00;;
32292;SDS011;43233;48.608;8.838;2024-03-23T14:52:54;6.13;;;2.00;;
32292;SDS011;43233;48.608;8.838;2024-03-23T14:55:20;2.30;;;1.20;;
32292;SDS011;43233;48.608;8.838;2024-03-23T14:57:45;1.53;;;1.40;;
32292;SDS011;43233;48.608;8.838;2024-03-23T15:00:11;5.30;;;1.77;;
32292;SDS011;43233;48.608;8.838;2024-03-23T15:02:37;1.80;;;1.70;;
32292;SDS011;43233;48.608;8.838;2024-03-23T15:05:04;5.53;;;1.63;;
32292;SDS011;43233;48.608;8.838;2024-03-23T15:07:30;1.83;;;1.10;;
32292;SDS011;43233;48.608;8.838;2024-03-23T15:09:56;5.13;;;1.67;;
32292;SDS011;43233;48.608;8.838;2024-03-23T15:12:21;1.70;;;1.57;;
32292;SDS011;43233;48.608;8.838;2024-03-23T15:14:47;3.30;;;1.50;;
32292;SDS011;43233;48.608;8.838;2024-03-23T15:17:13;2.47;;;1.40;;
32292;SDS011;43233;48.608;8.838;2024-03-23T15:19:39;2.00;;;1.50;;
32292;SDS011;43233;48.608;8.838;2024-03-23T15:22:06;2.43;;;1.40;;
32292;SDS011;43233;48.608;8.838;2024-03-23T15:24:32;3.17;;;1.67;;
32292;SDS011;43233;48.608;8.838;2024-03-23T15:27:00;3.97;;;1.73;;
32292;SDS011;43233;48.608;8.838;2024-03-23T15:29:25;1.80;;;1.53;;
32292;SDS011;43233;48.608;8.838;2024-03-23T15:31:51;1.87;;;1.70;;
32292;SDS011;43233;48.608;8.838;2024-03-23T15:34:18;4.87;;;2.17;;
32292;SDS011;43233;48.608;8.838;2024-03-23T15:36:46;3.27;;;1.70;;
32292;SDS011;43233;48.608;8.838;2024-03-23T15:39:18;2.33;;;1.70;;
32292;SDS011;43233;48.608;8.838;2024-03-23T15:41:45;3.83;;;2.20;;
32292;SDS011;43233;48.608;8.838;2024-03-23T15:44:10;1.97;;;1.50;;
32292;SDS011;43233;48.608;8.838;2024-03-23T15:46:36;9.10;;;1.67;;
32292;SDS011;43233;48.608;8.838;2024-03-23T15:49:02;4.23;;;1.50;;
32292;SDS011;43233;48.608;8.838;2024-03-23T15:51:28;5.07;;;1.47;;
32292;SDS011;43233;48.608;8.838;2024-03-23T15:53:57;2.90;;;1.70;;
32292;SDS011;43233;48.608;8.838;2024-03-23T15:56:24;6.70;;;1.97;;
32292;SDS011;43233;48.608;8.838;2024-03-23T15:58:49;5.03;;;1.80;;
32292;SDS011;43233;48.608;8.838;2024-03-23T16:01:15;4.37;;;2.00;;
32292;SDS011;43233;48.608;8.838;2024-03-23T16:03:40;4.30;;;1.90;;
32292;SDS011;43233;48.608;8.838;2024-03-23T16:06:06;3.57;;;1.40;;